sensor_id;sensor_type;location;lat;lon;timestamp;temperature;humidity
44477;DHT22;30180;44.788;10.366;2023-04-03T00:01:30;18.10;67.00
44477;DHT22;30180;44.788;10.366;2023-04-03T00:03:59;18.10;67.00
44477;DHT22;30180;44.788;10.366;2023-04-03T00:06:27;18.10;67.00
44477;DHT22;30180;44.788;10.366;2023-04-03T00:08:56;18.10;67.10
44477;DHT22;30180;44.788;10.366;2023-04-03T00:11:24;18.10;67.00
44477;DHT22;30180;44.788;10.366;2023-04-03T00:13:53;18.10;67.00
44477;DHT22;30180;44.788;10.366;2023-04-03T00:16:21;18.10;67.00
44477;DHT22;30180;44.788;10.366;2023-04-03T00:18:51;18.10;67.10
44477;DHT22;30180;44.788;10.366;2023-04-03T00:21:19;18.10;67.10
44477;DHT22;30180;44.788;10.366;2023-04-03T00:23:47;18.10;67.10
44477;DHT22;30180;44.788;10.366;2023-04-03T00:26:15;18.10;67.10
44477;DHT22;30180;44.788;10.366;2023-04-03T00:28:44;18.10;67.10
44477;DHT22;30180;44.788;10.366;2023-04-03T00:31:14;18.10;67.10
44477;DHT22;30180;44.788;10.366;2023-04-03T00:33:43;18.10;67.10
44477;DHT22;30180;44.788;10.366;2023-04-03T00:36:13;18.00;67.10
44477;DHT22;30180;44.788;10.366;2023-04-03T00:38:42;18.10;67.20
44477;DHT22;30180;44.788;10.366;2023-04-03T00:41:10;18.10;67.20
44477;DHT22;30180;44.788;10.366;2023-04-03T00:43:38;18.10;67.20
44477;DHT22;30180;44.788;10.366;2023-04-03T00:46:07;18.10;67.20
44477;DHT22;30180;44.788;10.366;2023-04-03T00:48:38;18.00;67.20
44477;DHT22;30180;44.788;10.366;2023-04-03T00:51:10;18.10;67.20
44477;DHT22;30180;44.788;10.366;2023-04-03T00:53:46;18.10;67.20
44477;DHT22;30180;44.788;10.366;2023-04-03T00:56:17;18.10;67.20
44477;DHT22;30180;44.788;10.366;2023-04-03T00:58:51;18.00;67.20
44477;DHT22;30180;44.788;10.366;2023-04-03T01:01:24;18.10;67.30
44477;DHT22;30180;44.788;10.366;2023-04-03T01:03:53;18.10;67.30
44477;DHT22;30180;44.788;10.366;2023-04-03T01:06:24;18.10;67.30
44477;DHT22;30180;44.788;10.366;2023-04-03T01:08:56;18.00;67.30
44477;DHT22;30180;44.788;10.366;2023-04-03T01:11:24;18.00;67.20
44477;DHT22;30180;44.788;10.366;2023-04-03T01:13:53;18.00;67.20
44477;DHT22;30180;44.788;10.366;2023-04-03T01:16:21;18.00;67.20
44477;DHT22;30180;44.788;10.366;2023-04-03T01:18:50;18.00;67.30
44477;DHT22;30180;44.788;10.366;2023-04-03T01:21:54;18.00;67.30
44477;DHT22;30180;44.788;10.366;2023-04-03T01:24:36;18.00;67.30
44477;DHT22;30180;44.788;10.366;2023-04-03T01:27:07;18.10;67.40
44477;DHT22;30180;44.788;10.366;2023-04-03T01:29:37;18.00;67.30
44477;DHT22;30180;44.788;10.366;2023-04-03T01:32:07;18.00;67.30
44477;DHT22;30180;44.788;10.366;2023-04-03T01:34:36;18.10;67.40
44477;DHT22;30180;44.788;10.366;2023-04-03T01:37:04;18.00;67.30
44477;DHT22;30180;44.788;10.366;2023-04-03T01:39:33;18.00;67.40
44477;DHT22;30180;44.788;10.366;2023-04-03T01:42:01;18.00;67.40
44477;DHT22;30180;44.788;10.366;2023-04-03T01:44:30;18.00;67.40
44477;DHT22;30180;44.788;10.366;2023-04-03T01:46:59;18.00;67.40
44477;DHT22;30180;44.788;10.366;2023-04-03T01:49:28;18.00;67.40
44477;DHT22;30180;44.788;10.366;2023-04-03T01:51:57;18.00;67.40
44477;DHT22;30180;44.788;10.366;2023-04-03T01:54:25;18.00;67.40
44477;DHT22;30180;44.788;10.366;2023-04-03T01:56:54;18.10;67.50
44477;DHT22;30180;44.788;10.366;2023-04-03T01:59:22;18.00;67.40
44477;DHT22;30180;44.788;10.366;2023-04-03T02:01:50;18.00;67.40
44477;DHT22;30180;44.788;10.366;2023-04-03T02:04:19;18.00;67.40
44477;DHT22;30180;44.788;10.366;2023-04-03T02:06:49;18.00;67.40
44477;DHT22;30180;44.788;10.366;2023-04-03T02:09:17;18.00;67.50
44477;DHT22;30180;44.788;10.366;2023-04-03T02:11:45;18.00;67.50
44477;DHT22;30180;44.788;10.366;2023-04-03T02:14:14;18.00;67.50
44477;DHT22;30180;44.788;10.366;2023-04-03T02:16:42;18.10;68.20
44477;DHT22;30180;44.788;10.366;2023-04-03T02:19:10;18.00;67.50
44477;DHT22;30180;44.788;10.366;2023-04-03T02:21:39;18.00;67.50
44477;DHT22;30180;44.788;10.366;2023-04-03T02:24:09;18.00;67.50
44477;DHT22;30180;44.788;10.366;2023-04-03T02:26:37;18.00;67.50
44477;DHT22;30180;44.788;10.366;2023-04-03T02:29:05;18.00;67.50
44477;DHT22;30180;44.788;10.366;2023-04-03T02:31:34;18.00;67.50
44477;DHT22;30180;44.788;10.366;2023-04-03T02:34:02;18.00;67.50
44477;DHT22;30180;44.788;10.366;2023-04-03T02:36:31;18.00;67.50
44477;DHT22;30180;44.788;10.366;2023-04-03T02:38:59;18.00;67.60
44477;DHT22;30180;44.788;10.366;2023-04-03T02:41:29;18.00;67.50
44477;DHT22;30180;44.788;10.366;2023-04-03T02:44:01;18.00;67.60
44477;DHT22;30180;44.788;10.366;2023-04-03T02:46:30;18.00;67.50
44477;DHT22;30180;44.788;10.366;2023-04-03T02:48:59;18.00;67.50
44477;DHT22;30180;44.788;10.366;2023-04-03T02:51:27;18.00;67.50
44477;DHT22;30180;44.788;10.366;2023-04-03T02:53:55;18.00;67.60
44477;DHT22;30180;44.788;10.366;2023-04-03T02:56:24;18.00;67.60
44477;DHT22;30180;44.788;10.366;2023-04-03T02:58:55;18.00;67.60
44477;DHT22;30180;44.788;10.366;2023-04-03T03:01:23;18.00;67.60
44477;DHT22;30180;44.788;10.366;2023-04-03T03:03:51;18.00;67.60
44477;DHT22;30180;44.788;10.366;2023-04-03T03:06:20;18.00;67.60
44477;DHT22;30180;44.788;10.366;2023-04-03T03:08:48;18.00;67.60
44477;DHT22;30180;44.788;10.366;2023-04-03T03:11:16;18.00;67.60
44477;DHT22;30180;44.788;10.366;2023-04-03T03:13:45;18.00;67.60
44477;DHT22;30180;44.788;10.366;2023-04-03T03:16:14;18.00;67.60
44477;DHT22;30180;44.788;10.366;2023-04-03T03:18:43;18.00;67.70
44477;DHT22;30180;44.788;10.366;2023-04-03T03:21:12;18.00;67.70
44477;DHT22;30180;44.788;10.366;2023-04-03T03:23:40;18.00;67.70
44477;DHT22;30180;44.788;10.366;2023-04-03T03:26:10;18.00;67.70
44477;DHT22;30180;44.788;10.366;2023-04-03T03:28:39;18.00;67.70
44477;DHT22;30180;44.788;10.366;2023-04-03T03:31:08;18.00;67.80
44477;DHT22;30180;44.788;10.366;2023-04-03T03:33:38;18.00;67.80
44477;DHT22;30180;44.788;10.366;2023-04-03T03:36:07;18.00;67.80
44477;DHT22;30180;44.788;10.366;2023-04-03T03:38:36;18.00;67.80
44477;DHT22;30180;44.788;10.366;2023-04-03T03:41:04;18.10;67.90
44477;DHT22;30180;44.788;10.366;2023-04-03T03:43:32;18.10;67.90
44477;DHT22;30180;44.788;10.366;2023-04-03T03:46:01;18.10;67.90
44477;DHT22;30180;44.788;10.366;2023-04-03T03:48:29;18.10;68.00
44477;DHT22;30180;44.788;10.366;2023-04-03T03:50:59;18.10;67.90
44477;DHT22;30180;44.788;10.366;2023-04-03T03:53:27;18.20;68.00
44477;DHT22;30180;44.788;10.366;2023-04-03T03:55:56;18.10;67.90
44477;DHT22;30180;44.788;10.366;2023-04-03T03:58:24;18.20;68.00
44477;DHT22;30180;44.788;10.366;2023-04-03T04:00:52;18.20;68.00
44477;DHT22;30180;44.788;10.366;2023-04-03T04:03:21;18.20;68.10
44477;DHT22;30180;44.788;10.366;2023-04-03T04:05:49;18.20;68.00
44477;DHT22;30180;44.788;10.366;2023-04-03T04:08:19;18.30;68.00
44477;DHT22;30180;44.788;10.366;2023-04-03T04:10:47;18.20;68.00
44477;DHT22;30180;44.788;10.366;2023-04-03T04:13:15;18.30;68.10
44477;DHT22;30180;44.788;10.366;2023-04-03T04:15:44;18.30;68.00
44477;DHT22;30180;44.788;10.366;2023-04-03T04:18:12;18.30;68.00
44477;DHT22;30180;44.788;10.366;2023-04-03T04:20:40;18.30;68.00
44477;DHT22;30180;44.788;10.366;2023-04-03T04:23:09;18.30;68.00
44477;DHT22;30180;44.788;10.366;2023-04-03T04:25:38;18.30;68.10
44477;DHT22;30180;44.788;10.366;2023-04-03T04:28:07;18.30;68.00
44477;DHT22;30180;44.788;10.366;2023-04-03T04:30:35;18.30;68.00
44477;DHT22;30180;44.788;10.366;2023-04-03T04:33:04;18.30;67.90
44477;DHT22;30180;44.788;10.366;2023-04-03T04:35:32;18.30;67.90
44477;DHT22;30180;44.788;10.366;2023-04-03T04:38:01;18.30;67.80
44477;DHT22;30180;44.788;10.366;2023-04-03T04:40:30;18.30;67.80
44477;DHT22;30180;44.788;10.366;2023-04-03T04:43:00;18.30;67.80
44477;DHT22;30180;44.788;10.366;2023-04-03T04:45:28;18.30;67.80
44477;DHT22;30180;44.788;10.366;2023-04-03T04:47:56;18.30;67.80
44477;DHT22;30180;44.788;10.366;2023-04-03T04:50:25;18.30;67.80
44477;DHT22;30180;44.788;10.366;2023-04-03T04:52:53;18.30;67.80
44477;DHT22;30180;44.788;10.366;2023-04-03T04:55:21;18.30;67.80
44477;DHT22;30180;44.788;10.366;2023-04-03T04:57:50;18.30;67.80
44477;DHT22;30180;44.788;10.366;2023-04-03T05:00:20;18.30;67.80
44477;DHT22;30180;44.788;10.366;2023-04-03T05:02:48;18.20;67.70
44477;DHT22;30180;44.788;10.366;2023-04-03T05:05:17;18.20;67.70
44477;DHT22;30180;44.788;10.366;2023-04-03T05:07:45;18.20;67.70
44477;DHT22;30180;44.788;10.366;2023-04-03T05:10:13;18.20;67.70
44477;DHT22;30180;44.788;10.366;2023-04-03T05:12:41;18.20;67.70
44477;DHT22;30180;44.788;10.366;2023-04-03T05:15:10;18.20;67.80
44477;DHT22;30180;44.788;10.366;2023-04-03T05:17:40;18.20;67.80
44477;DHT22;30180;44.788;10.366;2023-04-03T05:20:09;18.20;67.80
44477;DHT22;30180;44.788;10.366;2023-04-03T05:22:37;18.30;67.80
44477;DHT22;30180;44.788;10.366;2023-04-03T05:25:06;18.30;67.80
44477;DHT22;30180;44.788;10.366;2023-04-03T05:27:35;18.30;67.80
44477;DHT22;30180;44.788;10.366;2023-04-03T05:30:04;18.30;67.70
44477;DHT22;30180;44.788;10.366;2023-04-03T05:32:32;18.30;67.70
44477;DHT22;30180;44.788;10.366;2023-04-03T05:35:03;18.20;67.70
44477;DHT22;30180;44.788;10.366;2023-04-03T05:37:31;18.30;67.70
44477;DHT22;30180;44.788;10.366;2023-04-03T05:40:00;18.20;67.70
44477;DHT22;30180;44.788;10.366;2023-04-03T05:42:28;18.20;67.70
44477;DHT22;30180;44.788;10.366;2023-04-03T05:44:56;18.20;67.70
44477;DHT22;30180;44.788;10.366;2023-04-03T05:47:25;18.20;67.70
44477;DHT22;30180;44.788;10.366;2023-04-03T05:49:53;18.20;67.60
44477;DHT22;30180;44.788;10.366;2023-04-03T05:52:26;18.20;67.60
44477;DHT22;30180;44.788;10.366;2023-04-03T05:54:55;18.20;67.60
44477;DHT22;30180;44.788;10.366;2023-04-03T05:57:24;18.20;67.60
44477;DHT22;30180;44.788;10.366;2023-04-03T05:59:52;18.20;67.60
44477;DHT22;30180;44.788;10.366;2023-04-03T06:02:22;18.20;67.60
44477;DHT22;30180;44.788;10.366;2023-04-03T06:04:50;18.20;67.60
44477;DHT22;30180;44.788;10.366;2023-04-03T06:07:21;18.20;67.50
44477;DHT22;30180;44.788;10.366;2023-04-03T06:09:51;18.20;67.60
44477;DHT22;30180;44.788;10.366;2023-04-03T06:12:20;18.20;67.50
44477;DHT22;30180;44.788;10.366;2023-04-03T06:14:48;18.20;67.50
44477;DHT22;30180;44.788;10.366;2023-04-03T06:17:16;18.20;67.50
44477;DHT22;30180;44.788;10.366;2023-04-03T06:19:46;18.20;67.50
44477;DHT22;30180;44.788;10.366;2023-04-03T06:22:14;18.20;67.50
44477;DHT22;30180;44.788;10.366;2023-04-03T06:24:42;18.20;67.50
44477;DHT22;30180;44.788;10.366;2023-04-03T06:27:12;18.20;67.50
44477;DHT22;30180;44.788;10.366;2023-04-03T06:29:40;18.20;67.50
44477;DHT22;30180;44.788;10.366;2023-04-03T06:32:09;18.10;67.40
44477;DHT22;30180;44.788;10.366;2023-04-03T06:34:37;18.10;67.40
44477;DHT22;30180;44.788;10.366;2023-04-03T06:37:05;18.20;67.40
44477;DHT22;30180;44.788;10.366;2023-04-03T06:39:34;18.10;67.40
44477;DHT22;30180;44.788;10.366;2023-04-03T06:42:02;18.20;67.40
44477;DHT22;30180;44.788;10.366;2023-04-03T06:44:32;18.10;67.40
44477;DHT22;30180;44.788;10.366;2023-04-03T06:47:01;18.10;67.30
44477;DHT22;30180;44.788;10.366;2023-04-03T06:49:29;18.10;67.40
44477;DHT22;30180;44.788;10.366;2023-04-03T06:51:58;18.10;67.30
44477;DHT22;30180;44.788;10.366;2023-04-03T06:54:28;18.10;67.30
44477;DHT22;30180;44.788;10.366;2023-04-03T06:56:56;18.10;67.30
44477;DHT22;30180;44.788;10.366;2023-04-03T06:59:25;18.10;67.30
44477;DHT22;30180;44.788;10.366;2023-04-03T07:01:54;18.10;67.30
44477;DHT22;30180;44.788;10.366;2023-04-03T07:04:23;18.10;67.30
44477;DHT22;30180;44.788;10.366;2023-04-03T07:06:52;18.10;67.20
44477;DHT22;30180;44.788;10.366;2023-04-03T07:09:20;18.10;67.20
44477;DHT22;30180;44.788;10.366;2023-04-03T07:11:49;18.10;67.20
44477;DHT22;30180;44.788;10.366;2023-04-03T07:14:17;18.10;67.20
44477;DHT22;30180;44.788;10.366;2023-04-03T07:16:45;18.10;67.20
44477;DHT22;30180;44.788;10.366;2023-04-03T07:19:15;18.10;67.20
44477;DHT22;30180;44.788;10.366;2023-04-03T07:21:45;18.10;67.20
44477;DHT22;30180;44.788;10.366;2023-04-03T07:24:13;18.10;67.20
44477;DHT22;30180;44.788;10.366;2023-04-03T07:26:42;18.00;67.10
44477;DHT22;30180;44.788;10.366;2023-04-03T07:29:12;18.00;67.10
44477;DHT22;30180;44.788;10.366;2023-04-03T07:31:41;18.00;67.10
44477;DHT22;30180;44.788;10.366;2023-04-03T07:34:10;18.00;67.10
44477;DHT22;30180;44.788;10.366;2023-04-03T07:36:40;18.00;67.10
44477;DHT22;30180;44.788;10.366;2023-04-03T07:39:08;18.00;67.10
44477;DHT22;30180;44.788;10.366;2023-04-03T07:41:38;18.00;67.10
44477;DHT22;30180;44.788;10.366;2023-04-03T07:44:06;18.00;67.10
44477;DHT22;30180;44.788;10.366;2023-04-03T07:46:36;18.00;67.10
44477;DHT22;30180;44.788;10.366;2023-04-03T07:49:06;18.00;67.00
44477;DHT22;30180;44.788;10.366;2023-04-03T07:51:34;18.00;67.00
44477;DHT22;30180;44.788;10.366;2023-04-03T07:54:04;18.00;67.00
44477;DHT22;30180;44.788;10.366;2023-04-03T07:56:32;18.00;67.00
44477;DHT22;30180;44.788;10.366;2023-04-03T07:59:01;18.00;67.00
44477;DHT22;30180;44.788;10.366;2023-04-03T08:01:29;18.00;67.00
44477;DHT22;30180;44.788;10.366;2023-04-03T08:03:59;18.00;67.00
44477;DHT22;30180;44.788;10.366;2023-04-03T08:06:28;18.00;67.00
44477;DHT22;30180;44.788;10.366;2023-04-03T08:09:14;18.00;66.60
44477;DHT22;30180;44.788;10.366;2023-04-03T08:11:43;18.00;67.00
44477;DHT22;30180;44.788;10.366;2023-04-03T08:14:12;18.00;66.90
44477;DHT22;30180;44.788;10.366;2023-04-03T08:16:44;18.00;66.90
44477;DHT22;30180;44.788;10.366;2023-04-03T08:19:13;18.00;66.90
44477;DHT22;30180;44.788;10.366;2023-04-03T08:21:52;18.00;66.90
44477;DHT22;30180;44.788;10.366;2023-04-03T08:24:22;17.90;66.90
44477;DHT22;30180;44.788;10.366;2023-04-03T08:26:50;18.00;66.90
44477;DHT22;30180;44.788;10.366;2023-04-03T08:29:19;17.90;66.90
44477;DHT22;30180;44.788;10.366;2023-04-03T08:31:48;18.00;66.90
44477;DHT22;30180;44.788;10.366;2023-04-03T08:34:17;17.90;66.90
44477;DHT22;30180;44.788;10.366;2023-04-03T08:36:46;18.00;66.90
44477;DHT22;30180;44.788;10.366;2023-04-03T08:39:15;18.00;66.90
44477;DHT22;30180;44.788;10.366;2023-04-03T08:41:45;18.00;66.90
44477;DHT22;30180;44.788;10.366;2023-04-03T08:44:22;17.90;66.80
44477;DHT22;30180;44.788;10.366;2023-04-03T08:47:00;18.00;66.90
44477;DHT22;30180;44.788;10.366;2023-04-03T08:49:32;18.00;66.90
44477;DHT22;30180;44.788;10.366;2023-04-03T08:52:03;17.90;66.80
44477;DHT22;30180;44.788;10.366;2023-04-03T08:54:34;17.90;66.80
44477;DHT22;30180;44.788;10.366;2023-04-03T08:57:05;17.90;66.80
44477;DHT22;30180;44.788;10.366;2023-04-03T08:59:35;17.90;66.80
44477;DHT22;30180;44.788;10.366;2023-04-03T09:02:24;17.90;66.80
44477;DHT22;30180;44.788;10.366;2023-04-03T09:04:54;17.90;66.80
44477;DHT22;30180;44.788;10.366;2023-04-03T09:07:31;17.90;66.80
44477;DHT22;30180;44.788;10.366;2023-04-03T09:10:02;17.90;66.80
44477;DHT22;30180;44.788;10.366;2023-04-03T09:12:37;17.90;66.80
44477;DHT22;30180;44.788;10.366;2023-04-03T09:15:14;17.90;66.80
44477;DHT22;30180;44.788;10.366;2023-04-03T09:17:57;17.90;66.80
44477;DHT22;30180;44.788;10.366;2023-04-03T09:20:36;17.90;66.80
44477;DHT22;30180;44.788;10.366;2023-04-03T09:23:16;17.90;66.80
44477;DHT22;30180;44.788;10.366;2023-04-03T09:25:46;17.90;66.90
44477;DHT22;30180;44.788;10.366;2023-04-03T09:28:16;17.90;66.90
44477;DHT22;30180;44.788;10.366;2023-04-03T09:30:44;17.90;66.90
44477;DHT22;30180;44.788;10.366;2023-04-03T09:33:14;17.90;66.90
44477;DHT22;30180;44.788;10.366;2023-04-03T09:35:43;17.90;66.90
44477;DHT22;30180;44.788;10.366;2023-04-03T09:38:15;18.00;66.90
44477;DHT22;30180;44.788;10.366;2023-04-03T09:40:45;18.00;66.90
44477;DHT22;30180;44.788;10.366;2023-04-03T09:43:25;17.90;66.90
44477;DHT22;30180;44.788;10.366;2023-04-03T09:45:55;18.00;67.00
44477;DHT22;30180;44.788;10.366;2023-04-03T09:48:25;18.00;67.00
44477;DHT22;30180;44.788;10.366;2023-04-03T09:50:59;18.00;67.00
44477;DHT22;30180;44.788;10.366;2023-04-03T09:53:35;18.00;67.00
44477;DHT22;30180;44.788;10.366;2023-04-03T09:56:19;18.00;67.00
44477;DHT22;30180;44.788;10.366;2023-04-03T09:58:52;18.00;67.00
44477;DHT22;30180;44.788;10.366;2023-04-03T10:01:32;18.10;67.10
44477;DHT22;30180;44.788;10.366;2023-04-03T10:04:09;18.10;67.00
44477;DHT22;30180;44.788;10.366;2023-04-03T10:06:39;18.10;67.00
44477;DHT22;30180;44.788;10.366;2023-04-03T10:09:21;18.10;67.00
44477;DHT22;30180;44.788;10.366;2023-04-03T10:12:03;18.20;67.00
44477;DHT22;30180;44.788;10.366;2023-04-03T10:14:35;18.20;67.00
44477;DHT22;30180;44.788;10.366;2023-04-03T10:17:15;18.10;66.90
44477;DHT22;30180;44.788;10.366;2023-04-03T10:19:49;18.20;67.00
44477;DHT22;30180;44.788;10.366;2023-04-03T10:22:22;18.20;67.00
44477;DHT22;30180;44.788;10.366;2023-04-03T10:25:01;18.20;67.00
44477;DHT22;30180;44.788;10.366;2023-04-03T10:27:39;18.20;67.00
44477;DHT22;30180;44.788;10.366;2023-04-03T10:30:19;18.20;67.00
44477;DHT22;30180;44.788;10.366;2023-04-03T10:32:58;18.20;67.00
44477;DHT22;30180;44.788;10.366;2023-04-03T10:35:39;18.20;66.90
44477;DHT22;30180;44.788;10.366;2023-04-03T10:38:15;18.20;66.90
44477;DHT22;30180;44.788;10.366;2023-04-03T10:40:52;18.20;66.90
44477;DHT22;30180;44.788;10.366;2023-04-03T10:43:30;18.20;66.90
44477;DHT22;30180;44.788;10.366;2023-04-03T10:46:04;18.20;66.90
44477;DHT22;30180;44.788;10.366;2023-04-03T10:51:31;18.20;66.90
44477;DHT22;30180;44.788;10.366;2023-04-03T10:54:05;18.20;66.90
44477;DHT22;30180;44.788;10.366;2023-04-03T10:56:38;18.20;66.80
44477;DHT22;30180;44.788;10.366;2023-04-03T10:59:21;18.20;66.80
44477;DHT22;30180;44.788;10.366;2023-04-03T11:01:55;18.20;66.90
44477;DHT22;30180;44.788;10.366;2023-04-03T11:04:27;18.20;66.90
44477;DHT22;30180;44.788;10.366;2023-04-03T11:07:01;18.20;66.80
44477;DHT22;30180;44.788;10.366;2023-04-03T11:09:32;18.20;66.80
44477;DHT22;30180;44.788;10.366;2023-04-03T11:12:15;18.20;66.80
44477;DHT22;30180;44.788;10.366;2023-04-03T11:14:47;18.20;66.80
44477;DHT22;30180;44.788;10.366;2023-04-03T11:17:26;18.20;66.80
44477;DHT22;30180;44.788;10.366;2023-04-03T11:20:01;18.20;67.40
44477;DHT22;30180;44.788;10.366;2023-04-03T11:22:35;18.20;66.80
44477;DHT22;30180;44.788;10.366;2023-04-03T11:25:14;18.20;66.70
44477;DHT22;30180;44.788;10.366;2023-04-03T11:27:49;18.20;66.70
44477;DHT22;30180;44.788;10.366;2023-04-03T11:30:21;18.20;66.70
44477;DHT22;30180;44.788;10.366;2023-04-03T11:33:08;18.20;66.70
44477;DHT22;30180;44.788;10.366;2023-04-03T11:35:43;18.20;66.70
44477;DHT22;30180;44.788;10.366;2023-04-03T11:38:18;18.20;66.70
44477;DHT22;30180;44.788;10.366;2023-04-03T11:40:47;18.20;66.70
44477;DHT22;30180;44.788;10.366;2023-04-03T11:43:22;18.20;66.70
44477;DHT22;30180;44.788;10.366;2023-04-03T11:45:56;18.20;66.70
44477;DHT22;30180;44.788;10.366;2023-04-03T11:48:50;18.20;66.70
44477;DHT22;30180;44.788;10.366;2023-04-03T11:51:42;18.20;66.70
44477;DHT22;30180;44.788;10.366;2023-04-03T11:54:42;18.20;66.60
44477;DHT22;30180;44.788;10.366;2023-04-03T11:57:46;18.20;66.60
44477;DHT22;30180;44.788;10.366;2023-04-03T12:00:55;18.20;66.60
44477;DHT22;30180;44.788;10.366;2023-04-03T12:07:00;18.10;66.50
44477;DHT22;30180;44.788;10.366;2023-04-03T12:12:28;18.10;66.50
44477;DHT22;30180;44.788;10.366;2023-04-03T12:17:55;18.10;66.50
44477;DHT22;30180;44.788;10.366;2023-04-03T12:20:57;18.10;66.50
44477;DHT22;30180;44.788;10.366;2023-04-03T12:23:30;18.20;66.60
44477;DHT22;30180;44.788;10.366;2023-04-03T12:26:20;18.10;66.50
44477;DHT22;30180;44.788;10.366;2023-04-03T12:28:50;18.10;66.50
44477;DHT22;30180;44.788;10.366;2023-04-03T12:31:20;18.10;66.50
44477;DHT22;30180;44.788;10.366;2023-04-03T12:34:04;18.10;66.50
44477;DHT22;30180;44.788;10.366;2023-04-03T12:36:45;18.10;66.50
44477;DHT22;30180;44.788;10.366;2023-04-03T12:39:33;18.10;66.50
44477;DHT22;30180;44.788;10.366;2023-04-03T12:42:15;18.10;66.50
44477;DHT22;30180;44.788;10.366;2023-04-03T12:44:49;18.10;67.10
44477;DHT22;30180;44.788;10.366;2023-04-03T12:47:28;18.10;66.50
44477;DHT22;30180;44.788;10.366;2023-04-03T12:50:00;18.10;66.50
44477;DHT22;30180;44.788;10.366;2023-04-03T12:52:35;18.10;66.50
44477;DHT22;30180;44.788;10.366;2023-04-03T12:55:14;18.10;66.50
44477;DHT22;30180;44.788;10.366;2023-04-03T12:57:43;18.10;66.50
44477;DHT22;30180;44.788;10.366;2023-04-03T13:00:30;18.10;67.10
44477;DHT22;30180;44.788;10.366;2023-04-03T13:03:01;18.10;66.50
44477;DHT22;30180;44.788;10.366;2023-04-03T13:05:32;18.10;66.50
44477;DHT22;30180;44.788;10.366;2023-04-03T13:08:05;18.10;66.50
44477;DHT22;30180;44.788;10.366;2023-04-03T13:10:43;18.10;66.50
44477;DHT22;30180;44.788;10.366;2023-04-03T13:13:14;18.10;66.50
44477;DHT22;30180;44.788;10.366;2023-04-03T13:15:45;18.10;66.50
44477;DHT22;30180;44.788;10.366;2023-04-03T13:18:24;18.10;66.50
44477;DHT22;30180;44.788;10.366;2023-04-03T13:20:53;18.10;66.50
44477;DHT22;30180;44.788;10.366;2023-04-03T13:23:24;18.10;66.50
44477;DHT22;30180;44.788;10.366;2023-04-03T13:25:54;18.10;66.40
44477;DHT22;30180;44.788;10.366;2023-04-03T13:28:25;18.10;66.50
44477;DHT22;30180;44.788;10.366;2023-04-03T13:31:03;18.10;66.50
44477;DHT22;30180;44.788;10.366;2023-04-03T13:33:34;18.10;66.40
44477;DHT22;30180;44.788;10.366;2023-04-03T13:36:08;18.10;67.10
44477;DHT22;30180;44.788;10.366;2023-04-03T13:38:39;18.10;66.40
44477;DHT22;30180;44.788;10.366;2023-04-03T13:41:24;18.10;66.40
44477;DHT22;30180;44.788;10.366;2023-04-03T13:43:53;18.10;66.50
44477;DHT22;30180;44.788;10.366;2023-04-03T13:46:36;18.20;66.50
44477;DHT22;30180;44.788;10.366;2023-04-03T13:49:19;18.10;66.40
44477;DHT22;30180;44.788;10.366;2023-04-03T13:51:48;18.10;66.40
44477;DHT22;30180;44.788;10.366;2023-04-03T13:54:35;18.10;66.40
44477;DHT22;30180;44.788;10.366;2023-04-03T13:57:12;18.10;66.40
44477;DHT22;30180;44.788;10.366;2023-04-03T13:59:42;18.10;66.40
44477;DHT22;30180;44.788;10.366;2023-04-03T14:02:16;18.10;66.40
44477;DHT22;30180;44.788;10.366;2023-04-03T14:04:49;18.10;66.50
44477;DHT22;30180;44.788;10.366;2023-04-03T14:07:20;18.10;66.50
44477;DHT22;30180;44.788;10.366;2023-04-03T14:09:48;18.10;66.50
44477;DHT22;30180;44.788;10.366;2023-04-03T14:12:24;18.10;66.40
44477;DHT22;30180;44.788;10.366;2023-04-03T14:14:57;18.10;66.40
44477;DHT22;30180;44.788;10.366;2023-04-03T14:17:29;18.10;66.40
44477;DHT22;30180;44.788;10.366;2023-04-03T14:19:58;18.10;66.40
44477;DHT22;30180;44.788;10.366;2023-04-03T14:22:31;18.10;66.40
44477;DHT22;30180;44.788;10.366;2023-04-03T14:25:01;18.10;66.40
44477;DHT22;30180;44.788;10.366;2023-04-03T14:27:35;18.10;66.40
44477;DHT22;30180;44.788;10.366;2023-04-03T14:30:07;18.10;66.40
44477;DHT22;30180;44.788;10.366;2023-04-03T14:32:35;18.00;66.30
44477;DHT22;30180;44.788;10.366;2023-04-03T14:35:04;18.10;66.40
44477;DHT22;30180;44.788;10.366;2023-04-03T14:37:33;18.10;66.30
44477;DHT22;30180;44.788;10.366;2023-04-03T14:40:04;18.10;66.40
44477;DHT22;30180;44.788;10.366;2023-04-03T14:42:36;18.10;66.40
44477;DHT22;30180;44.788;10.366;2023-04-03T14:45:09;18.00;66.30
44477;DHT22;30180;44.788;10.366;2023-04-03T14:47:40;18.10;66.30
44477;DHT22;30180;44.788;10.366;2023-04-03T14:50:13;18.00;66.30
44477;DHT22;30180;44.788;10.366;2023-04-03T14:52:44;18.10;66.40
44477;DHT22;30180;44.788;10.366;2023-04-03T14:55:15;18.00;66.30
44477;DHT22;30180;44.788;10.366;2023-04-03T14:57:45;18.00;66.30
44477;DHT22;30180;44.788;10.366;2023-04-03T15:00:16;18.00;66.30
44477;DHT22;30180;44.788;10.366;2023-04-03T15:02:45;18.00;66.30
44477;DHT22;30180;44.788;10.366;2023-04-03T15:05:15;18.00;66.30
44477;DHT22;30180;44.788;10.366;2023-04-03T15:07:47;18.00;66.20
44477;DHT22;30180;44.788;10.366;2023-04-03T15:10:19;18.00;66.30
44477;DHT22;30180;44.788;10.366;2023-04-03T15:12:50;18.00;66.30
44477;DHT22;30180;44.788;10.366;2023-04-03T15:15:20;18.00;66.20
44477;DHT22;30180;44.788;10.366;2023-04-03T15:17:51;18.00;66.30
44477;DHT22;30180;44.788;10.366;2023-04-03T15:20:23;18.00;66.30
44477;DHT22;30180;44.788;10.366;2023-04-03T15:22:52;18.00;66.30
44477;DHT22;30180;44.788;10.366;2023-04-03T15:25:20;18.00;66.30
44477;DHT22;30180;44.788;10.366;2023-04-03T15:27:50;18.00;66.30
44477;DHT22;30180;44.788;10.366;2023-04-03T15:30:19;18.00;66.30
44477;DHT22;30180;44.788;10.366;2023-04-03T15:32:49;18.00;66.20
44477;DHT22;30180;44.788;10.366;2023-04-03T15:35:17;18.00;66.20
44477;DHT22;30180;44.788;10.366;2023-04-03T15:37:46;18.00;66.30
44477;DHT22;30180;44.788;10.366;2023-04-03T15:40:15;18.00;66.20
44477;DHT22;30180;44.788;10.366;2023-04-03T15:42:44;18.00;66.20
44477;DHT22;30180;44.788;10.366;2023-04-03T15:45:13;18.00;66.30
44477;DHT22;30180;44.788;10.366;2023-04-03T15:47:42;18.00;66.20
44477;DHT22;30180;44.788;10.366;2023-04-03T15:50:10;18.00;66.30
44477;DHT22;30180;44.788;10.366;2023-04-03T15:52:38;18.00;66.30
44477;DHT22;30180;44.788;10.366;2023-04-03T15:55:07;18.00;66.30